sensor_id;sensor_type;location;lat;lon;timestamp;temperature;humidity
34095;DHT22;20372;47.080;15.410;2023-04-06T00:00:56;0.20;85.20
34095;DHT22;20372;47.080;15.410;2023-04-06T00:03:22;0.30;85.40
34095;DHT22;20372;47.080;15.410;2023-04-06T00:05:48;0.30;85.20
34095;DHT22;20372;47.080;15.410;2023-04-06T00:08:14;0.30;85.20
34095;DHT22;20372;47.080;15.410;2023-04-06T00:10:39;0.30;85.00
34095;DHT22;20372;47.080;15.410;2023-04-06T00:13:05;0.20;85.30
34095;DHT22;20372;47.080;15.410;2023-04-06T00:15:31;0.10;85.90
34095;DHT22;20372;47.080;15.410;2023-04-06T00:17:57;-0.10;86.10
34095;DHT22;20372;47.080;15.410;2023-04-06T00:20:23;-0.10;86.90
34095;DHT22;20372;47.080;15.410;2023-04-06T00:22:48;-0.10;87.10
34095;DHT22;20372;47.080;15.410;2023-04-06T00:25:14;-0.10;87.40
34095;DHT22;20372;47.080;15.410;2023-04-06T00:27:40;-0.20;87.40
34095;DHT22;20372;47.080;15.410;2023-04-06T00:30:06;-0.10;88.20
34095;DHT22;20372;47.080;15.410;2023-04-06T00:32:32;0.00;88.10
34095;DHT22;20372;47.080;15.410;2023-04-06T00:34:58;0.00;87.90
34095;DHT22;20372;47.080;15.410;2023-04-06T00:37:24;-0.10;88.20
34095;DHT22;20372;47.080;15.410;2023-04-06T00:39:49;-0.10;88.20
34095;DHT22;20372;47.080;15.410;2023-04-06T00:42:17;-0.10;88.00
34095;DHT22;20372;47.080;15.410;2023-04-06T00:44:50;-0.10;87.70
34095;DHT22;20372;47.080;15.410;2023-04-06T00:47:16;-0.10;87.80
34095;DHT22;20372;47.080;15.410;2023-04-06T00:49:42;-0.10;87.60
34095;DHT22;20372;47.080;15.410;2023-04-06T00:52:07;-0.10;87.80
34095;DHT22;20372;47.080;15.410;2023-04-06T00:54:33;-0.10;87.60
34095;DHT22;20372;47.080;15.410;2023-04-06T00:56:58;-0.10;88.00
34095;DHT22;20372;47.080;15.410;2023-04-06T00:59:25;-0.20;88.30
34095;DHT22;20372;47.080;15.410;2023-04-06T01:01:51;-0.20;88.30
34095;DHT22;20372;47.080;15.410;2023-04-06T01:04:17;-0.30;88.40
34095;DHT22;20372;47.080;15.410;2023-04-06T01:06:42;-0.30;88.60
34095;DHT22;20372;47.080;15.410;2023-04-06T01:09:08;-0.40;88.80
34095;DHT22;20372;47.080;15.410;2023-04-06T01:11:35;-0.40;89.20
34095;DHT22;20372;47.080;15.410;2023-04-06T01:14:00;-0.40;89.10
34095;DHT22;20372;47.080;15.410;2023-04-06T01:16:26;-0.40;89.60
34095;DHT22;20372;47.080;15.410;2023-04-06T01:18:51;-0.40;89.20
34095;DHT22;20372;47.080;15.410;2023-04-06T01:21:17;-0.30;89.40
34095;DHT22;20372;47.080;15.410;2023-04-06T01:23:44;-0.40;89.20
34095;DHT22;20372;47.080;15.410;2023-04-06T01:26:10;-0.40;89.60
34095;DHT22;20372;47.080;15.410;2023-04-06T01:28:36;-0.40;89.90
34095;DHT22;20372;47.080;15.410;2023-04-06T01:31:02;-0.30;90.00
34095;DHT22;20372;47.080;15.410;2023-04-06T01:33:28;-0.40;90.00
34095;DHT22;20372;47.080;15.410;2023-04-06T01:35:54;-0.40;90.10
34095;DHT22;20372;47.080;15.410;2023-04-06T01:38:20;-0.40;90.20
34095;DHT22;20372;47.080;15.410;2023-04-06T01:40:46;-0.40;90.10
34095;DHT22;20372;47.080;15.410;2023-04-06T01:43:11;-0.40;90.00
34095;DHT22;20372;47.080;15.410;2023-04-06T01:45:37;-0.40;89.70
34095;DHT22;20372;47.080;15.410;2023-04-06T01:48:03;-0.40;89.80
34095;DHT22;20372;47.080;15.410;2023-04-06T01:50:29;-0.40;90.10
34095;DHT22;20372;47.080;15.410;2023-04-06T01:52:54;-0.50;90.30
34095;DHT22;20372;47.080;15.410;2023-04-06T01:55:20;-0.50;90.30
34095;DHT22;20372;47.080;15.410;2023-04-06T01:57:46;-0.40;90.30
34095;DHT22;20372;47.080;15.410;2023-04-06T02:00:11;-2.00;90.00
34095;DHT22;20372;47.080;15.410;2023-04-06T02:02:37;-0.40;90.50
34095;DHT22;20372;47.080;15.410;2023-04-06T02:05:03;-0.50;90.30
34095;DHT22;20372;47.080;15.410;2023-04-06T02:07:28;-0.50;90.50
34095;DHT22;20372;47.080;15.410;2023-04-06T02:09:54;-0.70;90.40
34095;DHT22;20372;47.080;15.410;2023-04-06T02:12:23;-0.70;90.30
34095;DHT22;20372;47.080;15.410;2023-04-06T02:14:49;-0.80;90.30
34095;DHT22;20372;47.080;15.410;2023-04-06T02:17:14;-0.80;90.50
34095;DHT22;20372;47.080;15.410;2023-04-06T02:19:40;-0.70;90.70
34095;DHT22;20372;47.080;15.410;2023-04-06T02:22:05;-0.70;90.40
34095;DHT22;20372;47.080;15.410;2023-04-06T02:24:32;-0.80;90.50
34095;DHT22;20372;47.080;15.410;2023-04-06T02:26:57;-0.90;90.70
34095;DHT22;20372;47.080;15.410;2023-04-06T02:29:23;-0.80;90.90
34095;DHT22;20372;47.080;15.410;2023-04-06T02:31:48;-0.70;90.90
34095;DHT22;20372;47.080;15.410;2023-04-06T02:34:14;-0.70;90.90
34095;DHT22;20372;47.080;15.410;2023-04-06T02:36:46;-0.70;90.80
34095;DHT22;20372;47.080;15.410;2023-04-06T02:39:11;-0.80;90.80
34095;DHT22;20372;47.080;15.410;2023-04-06T02:41:38;-0.90;91.00
34095;DHT22;20372;47.080;15.410;2023-04-06T02:44:05;-0.80;91.10
34095;DHT22;20372;47.080;15.410;2023-04-06T02:46:31;-0.80;91.20
34095;DHT22;20372;47.080;15.410;2023-04-06T02:48:56;-0.80;91.30
34095;DHT22;20372;47.080;15.410;2023-04-06T02:51:22;-0.90;91.20
34095;DHT22;20372;47.080;15.410;2023-04-06T02:53:48;-0.90;91.40
34095;DHT22;20372;47.080;15.410;2023-04-06T02:56:13;-0.90;91.60
34095;DHT22;20372;47.080;15.410;2023-04-06T02:58:39;-0.90;91.70
34095;DHT22;20372;47.080;15.410;2023-04-06T03:01:04;-0.90;91.60
34095;DHT22;20372;47.080;15.410;2023-04-06T03:03:30;-1.00;91.70
34095;DHT22;20372;47.080;15.410;2023-04-06T03:05:56;-1.10;91.80
34095;DHT22;20372;47.080;15.410;2023-04-06T03:08:24;-1.00;91.70
34095;DHT22;20372;47.080;15.410;2023-04-06T03:10:49;-1.10;92.00
34095;DHT22;20372;47.080;15.410;2023-04-06T03:13:15;-1.10;92.00
34095;DHT22;20372;47.080;15.410;2023-04-06T03:15:41;-1.10;92.00
34095;DHT22;20372;47.080;15.410;2023-04-06T03:18:06;-1.10;92.00
34095;DHT22;20372;47.080;15.410;2023-04-06T03:20:32;-1.10;92.10
34095;DHT22;20372;47.080;15.410;2023-04-06T03:22:57;-1.10;92.10
34095;DHT22;20372;47.080;15.410;2023-04-06T03:25:23;-1.00;92.10
34095;DHT22;20372;47.080;15.410;2023-04-06T03:27:49;-1.10;92.20
34095;DHT22;20372;47.080;15.410;2023-04-06T03:30:14;-1.20;92.40
34095;DHT22;20372;47.080;15.410;2023-04-06T03:32:43;-1.20;92.60
34095;DHT22;20372;47.080;15.410;2023-04-06T03:35:08;-1.10;92.60
34095;DHT22;20372;47.080;15.410;2023-04-06T03:37:34;-1.20;92.50
34095;DHT22;20372;47.080;15.410;2023-04-06T03:40:00;-1.10;92.80
34095;DHT22;20372;47.080;15.410;2023-04-06T03:42:26;-1.10;92.80
34095;DHT22;20372;47.080;15.410;2023-04-06T03:44:52;-1.20;92.70
34095;DHT22;20372;47.080;15.410;2023-04-06T03:47:17;-1.20;92.90
34095;DHT22;20372;47.080;15.410;2023-04-06T03:49:43;-1.20;93.00
34095;DHT22;20372;47.080;15.410;2023-04-06T03:52:09;-1.20;93.20
34095;DHT22;20372;47.080;15.410;2023-04-06T03:54:35;-1.20;93.10
34095;DHT22;20372;47.080;15.410;2023-04-06T03:57:01;-1.30;93.30
34095;DHT22;20372;47.080;15.410;2023-04-06T03:59:27;-1.20;93.20
34095;DHT22;20372;47.080;15.410;2023-04-06T04:01:53;-1.20;93.10
34095;DHT22;20372;47.080;15.410;2023-04-06T04:04:18;-1.20;93.00
34095;DHT22;20372;47.080;15.410;2023-04-06T04:06:44;-1.20;93.10
34095;DHT22;20372;47.080;15.410;2023-04-06T04:09:10;-1.10;93.10
34095;DHT22;20372;47.080;15.410;2023-04-06T04:11:35;-1.10;93.10
34095;DHT22;20372;47.080;15.410;2023-04-06T04:14:01;-1.10;93.20
34095;DHT22;20372;47.080;15.410;2023-04-06T04:16:27;-1.20;93.20
34095;DHT22;20372;47.080;15.410;2023-04-06T04:18:52;-1.20;93.30
34095;DHT22;20372;47.080;15.410;2023-04-06T04:21:18;-1.30;93.50
34095;DHT22;20372;47.080;15.410;2023-04-06T04:23:43;-1.30;93.50
34095;DHT22;20372;47.080;15.410;2023-04-06T04:26:09;-1.30;93.70
34095;DHT22;20372;47.080;15.410;2023-04-06T04:28:35;-1.30;93.60
34095;DHT22;20372;47.080;15.410;2023-04-06T04:31:01;-1.40;93.70
34095;DHT22;20372;47.080;15.410;2023-04-06T04:33:26;-1.30;93.70
34095;DHT22;20372;47.080;15.410;2023-04-06T04:35:52;-1.20;93.50
34095;DHT22;20372;47.080;15.410;2023-04-06T04:38:17;-1.20;93.40
34095;DHT22;20372;47.080;15.410;2023-04-06T04:40:43;-1.20;93.30
34095;DHT22;20372;47.080;15.410;2023-04-06T04:43:09;-1.10;93.00
34095;DHT22;20372;47.080;15.410;2023-04-06T04:45:34;-1.00;93.00
34095;DHT22;20372;47.080;15.410;2023-04-06T04:48:00;-1.10;92.90
34095;DHT22;20372;47.080;15.410;2023-04-06T04:50:26;-1.10;92.90
34095;DHT22;20372;47.080;15.410;2023-04-06T04:52:51;-1.10;93.00
34095;DHT22;20372;47.080;15.410;2023-04-06T04:55:17;-1.10;93.10
34095;DHT22;20372;47.080;15.410;2023-04-06T04:57:43;-1.00;92.90
34095;DHT22;20372;47.080;15.410;2023-04-06T05:00:08;-1.00;92.90
34095;DHT22;20372;47.080;15.410;2023-04-06T05:02:34;-0.90;92.80
34095;DHT22;20372;47.080;15.410;2023-04-06T05:05:00;-0.90;92.60
34095;DHT22;20372;47.080;15.410;2023-04-06T05:07:26;-0.80;92.70
34095;DHT22;20372;47.080;15.410;2023-04-06T05:09:52;-0.80;92.50
34095;DHT22;20372;47.080;15.410;2023-04-06T05:12:18;-0.70;92.30
34095;DHT22;20372;47.080;15.410;2023-04-06T05:14:44;-0.70;92.20
34095;DHT22;20372;47.080;15.410;2023-04-06T05:17:09;-0.60;91.90
34095;DHT22;20372;47.080;15.410;2023-04-06T05:19:35;-0.50;91.70
34095;DHT22;20372;47.080;15.410;2023-04-06T05:22:01;-0.50;91.50
34095;DHT22;20372;47.080;15.410;2023-04-06T05:24:26;-0.40;91.40
34095;DHT22;20372;47.080;15.410;2023-04-06T05:26:52;-0.20;91.20
34095;DHT22;20372;47.080;15.410;2023-04-06T05:29:18;0.00;91.10
34095;DHT22;20372;47.080;15.410;2023-04-06T05:31:43;2.40;86.40
34095;DHT22;20372;47.080;15.410;2023-04-06T05:34:09;4.60;76.80
34095;DHT22;20372;47.080;15.410;2023-04-06T05:36:35;4.70;73.30
34095;DHT22;20372;47.080;15.410;2023-04-06T05:39:01;5.30;72.10
34095;DHT22;20372;47.080;15.410;2023-04-06T05:41:27;6.40;68.70
34095;DHT22;20372;47.080;15.410;2023-04-06T05:43:52;7.90;65.30
34095;DHT22;20372;47.080;15.410;2023-04-06T05:46:18;8.40;62.90
34095;DHT22;20372;47.080;15.410;2023-04-06T05:48:43;9.50;60.20
34095;DHT22;20372;47.080;15.410;2023-04-06T05:51:10;9.70;59.90
34095;DHT22;20372;47.080;15.410;2023-04-06T05:53:36;10.50;57.70
34095;DHT22;20372;47.080;15.410;2023-04-06T05:56:02;10.20;57.70
34095;DHT22;20372;47.080;15.410;2023-04-06T05:58:27;10.80;57.00
34095;DHT22;20372;47.080;15.410;2023-04-06T06:01:00;11.00;56.90
34095;DHT22;20372;47.080;15.410;2023-04-06T06:03:25;10.50;56.70
34095;DHT22;20372;47.080;15.410;2023-04-06T06:05:51;11.10;55.60
34095;DHT22;20372;47.080;15.410;2023-04-06T06:08:17;10.00;56.60
34095;DHT22;20372;47.080;15.410;2023-04-06T06:10:42;11.80;55.10
34095;DHT22;20372;47.080;15.410;2023-04-06T06:13:08;12.70;53.00
34095;DHT22;20372;47.080;15.410;2023-04-06T06:15:34;12.70;53.80
34095;DHT22;20372;47.080;15.410;2023-04-06T06:17:59;12.60;54.30
34095;DHT22;20372;47.080;15.410;2023-04-06T06:20:25;13.10;52.80
34095;DHT22;20372;47.080;15.410;2023-04-06T06:22:51;13.30;52.80
34095;DHT22;20372;47.080;15.410;2023-04-06T06:25:17;14.50;50.20
34095;DHT22;20372;47.080;15.410;2023-04-06T06:27:43;15.10;48.80
34095;DHT22;20372;47.080;15.410;2023-04-06T06:30:09;15.50;48.20
34095;DHT22;20372;47.080;15.410;2023-04-06T06:32:34;15.30;48.60
34095;DHT22;20372;47.080;15.410;2023-04-06T06:35:00;16.00;48.40
34095;DHT22;20372;47.080;15.410;2023-04-06T06:37:26;16.10;47.30
34095;DHT22;20372;47.080;15.410;2023-04-06T06:39:51;16.20;47.40
34095;DHT22;20372;47.080;15.410;2023-04-06T06:42:17;17.90;48.10
34095;DHT22;20372;47.080;15.410;2023-04-06T06:44:42;19.20;44.80
34095;DHT22;20372;47.080;15.410;2023-04-06T06:47:08;18.80;44.80
34095;DHT22;20372;47.080;15.410;2023-04-06T06:49:34;20.30;43.80
34095;DHT22;20372;47.080;15.410;2023-04-06T06:51:59;20.30;44.10
34095;DHT22;20372;47.080;15.410;2023-04-06T06:54:25;20.70;43.80
34095;DHT22;20372;47.080;15.410;2023-04-06T06:56:50;20.40;43.40
34095;DHT22;20372;47.080;15.410;2023-04-06T06:59:16;19.50;44.10
34095;DHT22;20372;47.080;15.410;2023-04-06T07:01:42;18.50;43.80
34095;DHT22;20372;47.080;15.410;2023-04-06T07:04:07;16.50;45.20
34095;DHT22;20372;47.080;15.410;2023-04-06T07:06:36;16.30;46.10
34095;DHT22;20372;47.080;15.410;2023-04-06T07:09:02;16.60;44.70
34095;DHT22;20372;47.080;15.410;2023-04-06T07:11:28;18.10;45.90
34095;DHT22;20372;47.080;15.410;2023-04-06T07:13:54;18.20;43.80
34095;DHT22;20372;47.080;15.410;2023-04-06T07:16:20;17.50;44.60
34095;DHT22;20372;47.080;15.410;2023-04-06T07:18:46;16.70;45.50
34095;DHT22;20372;47.080;15.410;2023-04-06T07:21:11;16.20;45.00
34095;DHT22;20372;47.080;15.410;2023-04-06T07:23:39;16.60;46.70
34095;DHT22;20372;47.080;15.410;2023-04-06T07:26:05;17.20;46.00
34095;DHT22;20372;47.080;15.410;2023-04-06T07:28:30;15.60;46.00
34095;DHT22;20372;47.080;15.410;2023-04-06T07:30:56;16.10;45.10
34095;DHT22;20372;47.080;15.410;2023-04-06T07:33:22;15.00;44.80
34095;DHT22;20372;47.080;15.410;2023-04-06T07:35:47;13.90;48.10
34095;DHT22;20372;47.080;15.410;2023-04-06T07:38:13;15.70;47.60
34095;DHT22;20372;47.080;15.410;2023-04-06T07:40:39;15.50;46.60
34095;DHT22;20372;47.080;15.410;2023-04-06T07:43:04;17.20;44.40
34095;DHT22;20372;47.080;15.410;2023-04-06T07:45:30;16.40;45.20
34095;DHT22;20372;47.080;15.410;2023-04-06T07:47:56;17.50;45.00
34095;DHT22;20372;47.080;15.410;2023-04-06T07:50:21;16.10;45.30
34095;DHT22;20372;47.080;15.410;2023-04-06T07:52:47;14.80;46.00
34095;DHT22;20372;47.080;15.410;2023-04-06T07:55:13;14.40;49.60
34095;DHT22;20372;47.080;15.410;2023-04-06T07:57:38;16.00;47.10
34095;DHT22;20372;47.080;15.410;2023-04-06T08:00:04;17.00;46.30
34095;DHT22;20372;47.080;15.410;2023-04-06T08:02:33;17.90;44.10
34095;DHT22;20372;47.080;15.410;2023-04-06T08:04:58;17.10;44.50
34095;DHT22;20372;47.080;15.410;2023-04-06T08:07:24;16.90;45.80
34095;DHT22;20372;47.080;15.410;2023-04-06T08:09:49;16.20;45.10
34095;DHT22;20372;47.080;15.410;2023-04-06T08:12:15;15.90;45.40
34095;DHT22;20372;47.080;15.410;2023-04-06T08:14:41;15.40;42.50
34095;DHT22;20372;47.080;15.410;2023-04-06T08:17:06;13.50;44.10
34095;DHT22;20372;47.080;15.410;2023-04-06T08:19:32;11.50;47.00
34095;DHT22;20372;47.080;15.410;2023-04-06T08:21:57;13.30;45.50
34095;DHT22;20372;47.080;15.410;2023-04-06T08:24:23;13.10;44.80
34095;DHT22;20372;47.080;15.410;2023-04-06T08:26:49;15.30;44.10
34095;DHT22;20372;47.080;15.410;2023-04-06T08:29:15;15.90;42.30
34095;DHT22;20372;47.080;15.410;2023-04-06T08:31:41;13.00;45.50
34095;DHT22;20372;47.080;15.410;2023-04-06T08:34:07;14.30;43.70
34095;DHT22;20372;47.080;15.410;2023-04-06T08:36:32;14.60;45.20
34095;DHT22;20372;47.080;15.410;2023-04-06T08:38:59;13.00;45.10
34095;DHT22;20372;47.080;15.410;2023-04-06T08:41:25;14.10;44.70
34095;DHT22;20372;47.080;15.410;2023-04-06T08:46:23;13.50;43.90
34095;DHT22;20372;47.080;15.410;2023-04-06T08:48:54;13.30;44.50
34095;DHT22;20372;47.080;15.410;2023-04-06T08:51:20;13.40;44.00
34095;DHT22;20372;47.080;15.410;2023-04-06T08:53:47;12.10;45.20
34095;DHT22;20372;47.080;15.410;2023-04-06T08:56:13;12.50;45.40
34095;DHT22;20372;47.080;15.410;2023-04-06T08:58:40;11.90;46.30
34095;DHT22;20372;47.080;15.410;2023-04-06T09:01:07;12.20;46.40
34095;DHT22;20372;47.080;15.410;2023-04-06T09:03:39;13.10;46.10
34095;DHT22;20372;47.080;15.410;2023-04-06T09:06:06;11.70;46.00
34095;DHT22;20372;47.080;15.410;2023-04-06T09:08:35;10.80;47.00
34095;DHT22;20372;47.080;15.410;2023-04-06T09:11:02;10.20;47.80
34095;DHT22;20372;47.080;15.410;2023-04-06T09:13:28;10.30;47.30
34095;DHT22;20372;47.080;15.410;2023-04-06T09:16:03;10.20;47.50
34095;DHT22;20372;47.080;15.410;2023-04-06T09:18:31;10.80;47.50
34095;DHT22;20372;47.080;15.410;2023-04-06T09:21:01;11.90;47.50
34095;DHT22;20372;47.080;15.410;2023-04-06T09:23:27;12.00;46.40
34095;DHT22;20372;47.080;15.410;2023-04-06T09:26:04;12.00;45.90
34095;DHT22;20372;47.080;15.410;2023-04-06T09:28:29;12.10;47.00
34095;DHT22;20372;47.080;15.410;2023-04-06T09:30:56;11.20;46.60
34095;DHT22;20372;47.080;15.410;2023-04-06T09:33:22;11.00;46.50
34095;DHT22;20372;47.080;15.410;2023-04-06T09:35:51;11.10;47.80
34095;DHT22;20372;47.080;15.410;2023-04-06T09:38:17;10.10;47.20
34095;DHT22;20372;47.080;15.410;2023-04-06T09:40:49;10.20;47.70
34095;DHT22;20372;47.080;15.410;2023-04-06T09:43:23;10.40;48.00
34095;DHT22;20372;47.080;15.410;2023-04-06T09:45:48;10.30;47.70
34095;DHT22;20372;47.080;15.410;2023-04-06T09:48:14;10.90;47.10
34095;DHT22;20372;47.080;15.410;2023-04-06T09:50:40;10.60;46.60
34095;DHT22;20372;47.080;15.410;2023-04-06T09:53:05;11.30;47.60
34095;DHT22;20372;47.080;15.410;2023-04-06T09:55:36;11.40;46.60
34095;DHT22;20372;47.080;15.410;2023-04-06T09:58:05;11.30;45.20
34095;DHT22;20372;47.080;15.410;2023-04-06T10:00:40;12.60;47.00
34095;DHT22;20372;47.080;15.410;2023-04-06T10:05:42;11.90;45.60
34095;DHT22;20372;47.080;15.410;2023-04-06T10:08:09;12.20;45.50
34095;DHT22;20372;47.080;15.410;2023-04-06T10:10:36;10.90;45.90
34095;DHT22;20372;47.080;15.410;2023-04-06T10:13:03;10.30;47.40
34095;DHT22;20372;47.080;15.410;2023-04-06T10:15:29;10.60;47.40
34095;DHT22;20372;47.080;15.410;2023-04-06T10:17:56;11.40;47.30
34095;DHT22;20372;47.080;15.410;2023-04-06T10:20:29;11.40;46.00
34095;DHT22;20372;47.080;15.410;2023-04-06T10:23:02;11.50;47.00
34095;DHT22;20372;47.080;15.410;2023-04-06T10:25:30;13.20;48.30
34095;DHT22;20372;47.080;15.410;2023-04-06T10:28:06;14.30;46.10
34095;DHT22;20372;47.080;15.410;2023-04-06T10:30:33;13.20;44.00
34095;DHT22;20372;47.080;15.410;2023-04-06T10:32:58;12.80;45.70
34095;DHT22;20372;47.080;15.410;2023-04-06T10:35:24;13.10;45.00
34095;DHT22;20372;47.080;15.410;2023-04-06T10:38:03;12.10;44.80
34095;DHT22;20372;47.080;15.410;2023-04-06T10:40:29;12.70;47.10
34095;DHT22;20372;47.080;15.410;2023-04-06T10:43:07;13.30;44.20
34095;DHT22;20372;47.080;15.410;2023-04-06T10:45:33;12.10;44.50
34095;DHT22;20372;47.080;15.410;2023-04-06T10:47:59;11.10;45.50
34095;DHT22;20372;47.080;15.410;2023-04-06T10:50:25;11.20;45.70
34095;DHT22;20372;47.080;15.410;2023-04-06T10:53:01;11.70;46.00
34095;DHT22;20372;47.080;15.410;2023-04-06T10:55:29;11.70;45.10
34095;DHT22;20372;47.080;15.410;2023-04-06T10:57:56;12.00;45.20
34095;DHT22;20372;47.080;15.410;2023-04-06T11:00:21;12.00;44.60
34095;DHT22;20372;47.080;15.410;2023-04-06T11:02:47;11.90;44.40
34095;DHT22;20372;47.080;15.410;2023-04-06T11:05:14;11.60;45.20
34095;DHT22;20372;47.080;15.410;2023-04-06T11:07:40;11.90;44.50
34095;DHT22;20372;47.080;15.410;2023-04-06T11:10:06;13.00;47.20
34095;DHT22;20372;47.080;15.410;2023-04-06T11:12:32;13.10;43.00
34095;DHT22;20372;47.080;15.410;2023-04-06T11:14:58;12.30;43.90
34095;DHT22;20372;47.080;15.410;2023-04-06T11:17:31;12.00;44.50
34095;DHT22;20372;47.080;15.410;2023-04-06T11:19:57;11.80;44.30
34095;DHT22;20372;47.080;15.410;2023-04-06T11:22:24;10.80;43.20
34095;DHT22;20372;47.080;15.410;2023-04-06T11:24:49;11.90;44.10
34095;DHT22;20372;47.080;15.410;2023-04-06T11:27:15;11.60;44.40
34095;DHT22;20372;47.080;15.410;2023-04-06T11:29:41;12.60;45.30
34095;DHT22;20372;47.080;15.410;2023-04-06T11:32:07;12.40;45.10
34095;DHT22;20372;47.080;15.410;2023-04-06T11:34:34;12.70;47.70
34095;DHT22;20372;47.080;15.410;2023-04-06T11:37:03;12.40;44.00
34095;DHT22;20372;47.080;15.410;2023-04-06T11:39:31;11.70;43.80
34095;DHT22;20372;47.080;15.410;2023-04-06T11:41:58;11.90;46.50
34095;DHT22;20372;47.080;15.410;2023-04-06T11:44:37;13.00;45.60
34095;DHT22;20372;47.080;15.410;2023-04-06T11:47:08;13.60;43.00
34095;DHT22;20372;47.080;15.410;2023-04-06T11:49:37;12.60;43.20
34095;DHT22;20372;47.080;15.410;2023-04-06T11:52:13;11.90;43.50
34095;DHT22;20372;47.080;15.410;2023-04-06T11:54:39;11.60;43.30
34095;DHT22;20372;47.080;15.410;2023-04-06T11:57:07;11.70;44.10
34095;DHT22;20372;47.080;15.410;2023-04-06T11:59:33;12.00;43.20
34095;DHT22;20372;47.080;15.410;2023-04-06T12:01:58;11.90;43.30
34095;DHT22;20372;47.080;15.410;2023-04-06T12:04:24;11.80;43.50
34095;DHT22;20372;47.080;15.410;2023-04-06T12:06:50;11.50;43.50
34095;DHT22;20372;47.080;15.410;2023-04-06T12:09:16;11.40;43.40
34095;DHT22;20372;47.080;15.410;2023-04-06T12:11:43;11.00;42.70
34095;DHT22;20372;47.080;15.410;2023-04-06T12:14:08;11.50;44.00
34095;DHT22;20372;47.080;15.410;2023-04-06T12:16:34;12.10;43.40
34095;DHT22;20372;47.080;15.410;2023-04-06T12:19:00;12.80;42.50
34095;DHT22;20372;47.080;15.410;2023-04-06T12:21:27;12.60;42.50
34095;DHT22;20372;47.080;15.410;2023-04-06T12:23:53;12.50;43.00
34095;DHT22;20372;47.080;15.410;2023-04-06T12:26:19;13.10;44.80
34095;DHT22;20372;47.080;15.410;2023-04-06T12:28:45;12.60;42.60
34095;DHT22;20372;47.080;15.410;2023-04-06T12:31:16;12.50;42.50
34095;DHT22;20372;47.080;15.410;2023-04-06T12:33:42;12.50;41.30
34095;DHT22;20372;47.080;15.410;2023-04-06T12:36:11;12.10;42.00
34095;DHT22;20372;47.080;15.410;2023-04-06T12:38:38;12.30;41.70
34095;DHT22;20372;47.080;15.410;2023-04-06T12:41:05;12.50;42.60
34095;DHT22;20372;47.080;15.410;2023-04-06T12:43:31;12.80;41.40
34095;DHT22;20372;47.080;15.410;2023-04-06T12:45:56;12.10;42.00
34095;DHT22;20372;47.080;15.410;2023-04-06T12:48:22;12.10;42.80
34095;DHT22;20372;47.080;15.410;2023-04-06T12:51:03;12.70;42.50
34095;DHT22;20372;47.080;15.410;2023-04-06T12:53:29;13.20;42.70
34095;DHT22;20372;47.080;15.410;2023-04-06T12:55:55;12.60;42.40
34095;DHT22;20372;47.080;15.410;2023-04-06T12:58:21;12.40;41.80
34095;DHT22;20372;47.080;15.410;2023-04-06T13:00:48;12.70;42.60
34095;DHT22;20372;47.080;15.410;2023-04-06T13:03:14;12.80;41.30
34095;DHT22;20372;47.080;15.410;2023-04-06T13:05:49;12.60;41.20
34095;DHT22;20372;47.080;15.410;2023-04-06T13:08:15;12.60;41.90
34095;DHT22;20372;47.080;15.410;2023-04-06T13:10:44;12.80;41.70
34095;DHT22;20372;47.080;15.410;2023-04-06T13:13:12;13.50;41.90
34095;DHT22;20372;47.080;15.410;2023-04-06T13:15:37;13.70;41.30
34095;DHT22;20372;47.080;15.410;2023-04-06T13:18:03;13.50;40.70
34095;DHT22;20372;47.080;15.410;2023-04-06T13:20:29;13.20;41.50
34095;DHT22;20372;47.080;15.410;2023-04-06T13:22:55;12.80;41.50
34095;DHT22;20372;47.080;15.410;2023-04-06T13:25:20;12.60;42.00
34095;DHT22;20372;47.080;15.410;2023-04-06T13:27:46;12.80;41.70
34095;DHT22;20372;47.080;15.410;2023-04-06T13:30:14;12.80;41.30
34095;DHT22;20372;47.080;15.410;2023-04-06T13:32:40;13.00;41.70
34095;DHT22;20372;47.080;15.410;2023-04-06T13:35:05;12.90;40.60
34095;DHT22;20372;47.080;15.410;2023-04-06T13:37:32;13.30;41.60
34095;DHT22;20372;47.080;15.410;2023-04-06T13:39:57;13.00;40.60
34095;DHT22;20372;47.080;15.410;2023-04-06T13:42:23;13.20;41.50
34095;DHT22;20372;47.080;15.410;2023-04-06T13:44:48;13.00;41.30
34095;DHT22;20372;47.080;15.410;2023-04-06T13:47:16;12.90;41.30
34095;DHT22;20372;47.080;15.410;2023-04-06T13:49:41;12.80;41.10
34095;DHT22;20372;47.080;15.410;2023-04-06T13:52:07;12.80;41.70
34095;DHT22;20372;47.080;15.410;2023-04-06T13:54:35;13.10;42.10
34095;DHT22;20372;47.080;15.410;2023-04-06T13:57:00;12.80;41.50
34095;DHT22;20372;47.080;15.410;2023-04-06T13:59:31;13.00;41.50
34095;DHT22;20372;47.080;15.410;2023-04-06T14:01:57;13.00;41.50
34095;DHT22;20372;47.080;15.410;2023-04-06T14:04:22;12.80;42.00
34095;DHT22;20372;47.080;15.410;2023-04-06T14:06:48;13.30;41.20
34095;DHT22;20372;47.080;15.410;2023-04-06T14:09:13;13.10;40.30
34095;DHT22;20372;47.080;15.410;2023-04-06T14:11:39;13.10;41.00
34095;DHT22;20372;47.080;15.410;2023-04-06T14:14:05;12.90;40.30
34095;DHT22;20372;47.080;15.410;2023-04-06T14:16:31;12.80;40.90
34095;DHT22;20372;47.080;15.410;2023-04-06T14:18:57;12.60;41.10
34095;DHT22;20372;47.080;15.410;2023-04-06T14:21:23;12.70;41.40
34095;DHT22;20372;47.080;15.410;2023-04-06T14:23:48;12.80;40.90
34095;DHT22;20372;47.080;15.410;2023-04-06T14:26:14;12.30;41.30
34095;DHT22;20372;47.080;15.410;2023-04-06T14:28:40;12.30;41.30
34095;DHT22;20372;47.080;15.410;2023-04-06T14:31:10;12.60;41.20
34095;DHT22;20372;47.080;15.410;2023-04-06T14:33:36;12.50;41.40
34095;DHT22;20372;47.080;15.410;2023-04-06T14:36:02;12.50;41.30
34095;DHT22;20372;47.080;15.410;2023-04-06T14:38:28;12.50;41.80
34095;DHT22;20372;47.080;15.410;2023-04-06T14:40:53;12.80;40.90
34095;DHT22;20372;47.080;15.410;2023-04-06T14:43:20;13.20;40.30
34095;DHT22;20372;47.080;15.410;2023-04-06T14:45:46;12.50;40.80
34095;DHT22;20372;47.080;15.410;2023-04-06T14:48:12;12.60;41.20
34095;DHT22;20372;47.080;15.410;2023-04-06T14:50:38;13.00;41.70
34095;DHT22;20372;47.080;15.410;2023-04-06T14:53:04;13.30;41.40
34095;DHT22;20372;47.080;15.410;2023-04-06T14:55:30;13.00;41.30
34095;DHT22;20372;47.080;15.410;2023-04-06T14:57:56;12.90;41.00
34095;DHT22;20372;47.080;15.410;2023-04-06T15:00:21;12.90;42.00
34095;DHT22;20372;47.080;15.410;2023-04-06T15:02:47;13.20;42.00
34095;DHT22;20372;47.080;15.410;2023-04-06T15:05:12;12.50;41.60
34095;DHT22;20372;47.080;15.410;2023-04-06T15:07:38;12.20;41.70
34095;DHT22;20372;47.080;15.410;2023-04-06T15:10:04;12.10;42.20
34095;DHT22;20372;47.080;15.410;2023-04-06T15:12:30;12.40;42.70
34095;DHT22;20372;47.080;15.410;2023-04-06T15:14:55;12.30;41.70
34095;DHT22;20372;47.080;15.410;2023-04-06T15:17:21;12.10;41.60